Home   Weather   France   Strasbourg   Past weeks
Flag for France

Past Weather in Strasbourg, Grand-Est, France — Yesterday and Last 2 Weeks

Currently: 73 °F. Passing clouds. (Weather station: Strasbourg Airport, France). See more current weather

Past Weather in Strasbourg — Graph

°F

Strasbourg Temperature Yesterday

Maximum temperature yesterday: 86 °F (at 5:00 pm)
Minimum temperature yesterday: 57 °F (at 4:00 am)
Average temperature yesterday: 70 °F

High & Low Weather Summary for the Past Weeks

 TemperatureHumidityPressure
High86 °F (Jun 18, 5:00 pm)100% (Jun 18, 1:30 am)30.12 "Hg (Jun 18, 1:30 am)
Low45 °F (Jun 12, 5:30 am)33% (Jun 10, 1:00 pm)29.74 "Hg (Jun 9, 4:30 pm)
Average65 °F67%29.93 "Hg
* Reported Jun 4 10:00 am — Jun 19 10:00 am, Strasbourg. Weather by CustomWeather, © 2024

Note: Actual official high and low records may vary slightly from our data, if they occured in-between our weather recording intervals... More about our weather records

Strasbourg Weather History for the Previous 24 Hours

Scroll right to see more
 ConditionsComfort  
Time TempWeatherWind HumidityBarometerVisibility
10:00 am
Wed, Jun 19
73 °FPassing clouds.5 mph83%29.92 "HgN/A
9:30 am70 °FSunny.2 mph88%29.92 "Hg10 mi
9:00 am68 °FMostly cloudy.5 mph88%29.92 "HgN/A
8:30 am68 °FMild.2 mph88%29.92 "HgN/A
8:00 am68 °FBroken clouds.3 mph88%29.92 "HgN/A
7:30 am68 °FOvercast.2 mph88%29.92 "HgN/A
7:00 am66 °FMild.5 mph88%29.92 "HgN/A
6:30 am66 °FMostly cloudy.2 mph88%29.92 "HgN/A
6:00 am66 °FThunderstorms. Overcast.6 mph94%29.92 "HgN/A
5:30 am66 °FThundershowers. Partly sunny.6 mph88%29.92 "HgN/A
5:00 am68 °FMild.9 mph83%29.92 "HgN/A
4:30 am68 °FMild.5 mph83%29.89 "HgN/A
4:00 am68 °FMild.6 mph83%29.89 "HgN/A
3:30 am68 °FMild.6 mph83%29.89 "HgN/A
3:00 am68 °FMild.6 mph83%29.92 "HgN/A
2:30 am68 °FMild.2 mph83%29.92 "HgN/A
2:00 am70 °FMild.2 mph78%29.92 "HgN/A
1:00 am72 °FMild.5 mph73%29.92 "HgN/A
12:30 am70 °FClear.5 mph78%29.89 "Hg10 mi
12:00 am70 °FPassing clouds.7 mph73%29.89 "HgN/A
11:30 pm
Tue, Jun 18
70 °FClear.2 mph78%29.86 "Hg10 mi
11:00 pm70 °FClear.2 mph78%29.86 "Hg10 mi
10:30 pm72 °FClear.5 mph78%29.86 "Hg10 mi
10:00 pm73 °FClear.3 mph74%29.86 "Hg4 mi
9:30 pm75 °FSunny.No wind69%29.86 "Hg10 mi
9:00 pm75 °FPassing clouds.3 mph69%29.86 "HgN/A
8:30 pm77 °FPassing clouds.5 mph61%29.86 "HgN/A
8:00 pm81 °FPassing clouds.6 mph54%29.86 "HgN/A
7:30 pm82 °FWarm.5 mph51%29.86 "HgN/A
7:00 pm82 °FPassing clouds.3 mph58%29.86 "HgN/A
6:30 pm84 °FSunny.5 mph48%29.86 "Hg10 mi
6:00 pm86 °FPassing clouds.7 mph46%29.86 "HgN/A
5:30 pm84 °FPassing clouds.9 mph45%29.86 "HgN/A
5:00 pm86 °FPassing clouds.12 mph43%29.86 "HgN/A
4:30 pm84 °FPassing clouds.12 mph48%29.86 "HgN/A
4:00 pm84 °FPassing clouds.7 mph48%29.89 "HgN/A
2:30 pm81 °FPassing clouds.5 mph58%29.92 "HgN/A
1:00 pm81 °FPassing clouds.5 mph54%29.92 "HgN/A
12:30 pm81 °FSunny.3 mph54%29.92 "Hg10 mi
11:30 am77 °FSunny.3 mph61%29.92 "Hg10 mi
10:30 am73 °FSunny.2 mph69%29.95 "Hg10 mi
Weather by CustomWeather, © 2024

See weather overview